Time;durP1;ratioP1;P1;durP2;ratioP2;P2;SDS_P1;SDS_P2;PMS_P1;PMS_P2;Temp;Humidity;BMP_temperature;BMP_pressure;BME280_temperature;BME280_humidity;BME280_pressure;Samples;Min_cycle;Max_cycle;Signal;HPM_P1;HPM_P2
2022/07/13 00:00:14;;;;;;;10.75;8.35;;;22.90;99.90;;;;;;5001718;28;20025;-76
2022/07/13 00:02:40;;;;;;;15.95;9.05;;;22.90;99.90;;;;;;5006471;28;20030;-76
2022/07/13 00:05:06;;;;;;;9.75;7.90;;;22.90;99.90;;;;;;5007132;28;20033;-76
2022/07/13 00:07:33;;;;;;;9.98;8.20;;;22.90;99.90;;;;;;5008530;28;20050;-76
2022/07/13 00:09:58;;;;;;;9.85;7.95;;;22.90;99.90;;;;;;5012791;28;20034;-77
2022/07/13 00:12:24;;;;;;;9.75;7.57;;;22.90;99.90;;;;;;5008088;28;20025;-77
2022/07/13 00:14:50;;;;;;;10.98;7.25;;;22.90;99.90;;;;;;5004766;28;20463;-76
2022/07/13 00:17:15;;;;;;;13.60;7.47;;;22.80;99.90;;;;;;5004455;28;20038;-76
2022/07/13 00:19:41;;;;;;;10.48;7.00;;;22.80;99.90;;;;;;5006497;28;20028;-77
2022/07/13 00:22:07;;;;;;;10.15;7.53;;;22.80;99.90;;;;;;5005549;28;20520;-76
2022/07/13 00:24:32;;;;;;;8.73;7.15;;;22.80;99.90;;;;;;5011773;28;20048;-76
2022/07/13 00:26:58;;;;;;;10.63;7.90;;;22.80;99.90;;;;;;5007832;28;20040;-76
2022/07/13 00:29:23;;;;;;;9.32;7.43;;;22.80;99.90;;;;;;5011122;28;20352;-76
2022/07/13 00:31:49;;;;;;;12.13;7.22;;;22.70;99.90;;;;;;4996810;28;20038;-76
2022/07/13 00:34:14;;;;;;;8.77;7.40;;;22.70;99.90;;;;;;5007298;28;20119;-76
2022/07/13 00:36:40;;;;;;;9.77;7.10;;;22.70;99.90;;;;;;5013137;28;20111;-77
2022/07/13 00:39:05;;;;;;;13.13;7.45;;;22.70;99.90;;;;;;5010578;28;20079;-76
2022/07/13 00:41:31;;;;;;;12.35;7.90;;;22.60;99.90;;;;;;5003425;28;20022;-76
2022/07/13 00:44:10;;;;;;;11.80;7.97;;;22.60;99.90;;;;;;5000316;28;20026;-76
2022/07/13 00:46:36;;;;;;;10.65;7.38;;;22.60;99.90;;;;;;5005410;28;20026;-77
2022/07/13 00:49:02;;;;;;;12.10;7.70;;;22.50;99.90;;;;;;5002750;28;20504;-76
2022/07/13 00:51:28;;;;;;;11.27;7.75;;;22.50;99.90;;;;;;5008987;28;20089;-77
2022/07/13 00:53:54;;;;;;;9.57;7.95;;;22.50;99.90;;;;;;5012128;28;20068;-76
2022/07/13 00:56:20;;;;;;;9.68;7.65;;;22.50;99.90;;;;;;5007750;28;20058;-76
2022/07/13 00:58:46;;;;;;;11.50;7.90;;;22.40;99.90;;;;;;5001141;28;20030;-76
2022/07/13 01:01:13;;;;;;;11.88;7.82;;;22.40;99.90;;;;;;5010065;28;20026;-76
2022/07/13 01:03:38;;;;;;;10.20;7.97;;;22.40;99.90;;;;;;4998264;28;20029;-77
2022/07/13 01:06:07;;;;;;;10.93;7.97;;;22.40;99.90;;;;;;5003157;28;20034;-76
2022/07/13 01:08:34;;;;;;;9.15;7.53;;;22.40;99.90;;;;;;5004657;28;20579;-78
2022/07/13 01:11:00;;;;;;;12.25;7.88;;;22.40;99.90;;;;;;4994458;28;20022;-77
2022/07/13 01:13:26;;;;;;;12.38;8.27;;;22.40;99.90;;;;;;5012833;28;20422;-76
2022/07/13 01:15:52;;;;;;;10.88;7.40;;;22.30;99.90;;;;;;5011497;28;20485;-76
2022/07/13 01:18:18;;;;;;;10.15;7.25;;;22.40;99.90;;;;;;5010145;28;20030;-76
2022/07/13 01:20:44;;;;;;;10.38;7.30;;;22.40;99.90;;;;;;4996332;28;20034;-77
2022/07/13 01:23:14;;;;;;;11.57;7.68;;;22.40;99.90;;;;;;4995762;28;20072;-76
2022/07/13 01:25:41;;;;;;;9.80;7.57;;;22.40;99.90;;;;;;4995526;28;20045;-76
2022/07/13 01:28:07;;;;;;;9.57;7.38;;;22.40;99.90;;;;;;5002911;28;20116;-76
2022/07/13 01:30:33;;;;;;;11.57;7.28;;;22.40;99.90;;;;;;5001053;28;20034;-77
2022/07/13 01:32:59;;;;;;;10.35;7.65;;;22.40;99.90;;;;;;5003485;28;20037;-77
2022/07/13 01:35:25;;;;;;;12.10;7.20;;;22.40;99.90;;;;;;5004528;28;20030;-77
2022/07/13 01:37:51;;;;;;;8.40;6.90;;;22.40;99.90;;;;;;5007833;28;20141;-76
2022/07/13 01:40:16;;;;;;;14.43;6.80;;;22.40;99.90;;;;;;5010538;28;20085;-76
2022/07/13 01:42:47;;;;;;;11.05;7.22;;;22.40;99.90;;;;;;4997727;28;20025;-77
2022/07/13 01:45:14;;;;;;;11.55;7.15;;;22.40;99.90;;;;;;4995692;28;20361;-76
2022/07/13 01:47:42;;;;;;;9.10;6.70;;;22.50;99.90;;;;;;4993425;28;20026;-76
2022/07/13 01:50:10;;;;;;;9.73;6.78;;;22.50;99.90;;;;;;4998657;28;20466;-76
2022/07/13 01:52:36;;;;;;;8.90;6.93;;;22.50;99.90;;;;;;5005753;28;20026;-77
2022/07/13 01:55:06;;;;;;;11.73;7.07;;;22.50;99.90;;;;;;4999841;28;20029;-76
2022/07/13 01:57:33;;;;;;;9.48;7.10;;;22.50;99.90;;;;;;5001993;28;20045;-76
2022/07/13 02:00:00;;;;;;;13.38;7.10;;;22.50;99.90;;;;;;4996153;28;20038;-77
2022/07/13 02:02:26;;;;;;;12.82;6.75;;;22.50;99.90;;;;;;4993112;28;20034;-77
2022/07/13 02:04:54;;;;;;;10.35;6.95;;;22.50;99.90;;;;;;5004703;28;20038;-76
2022/07/13 02:07:20;;;;;;;14.25;6.90;;;22.50;99.90;;;;;;5010406;28;20458;-75
2022/07/13 02:09:46;;;;;;;11.95;6.60;;;22.50;99.90;;;;;;5000755;28;20022;-76
2022/07/13 02:12:11;;;;;;;10.00;7.03;;;22.50;99.90;;;;;;5003433;28;20033;-76
2022/07/13 02:14:37;;;;;;;10.30;7.22;;;22.50;99.90;;;;;;4995640;28;20026;-77
2022/07/13 02:17:02;;;;;;;8.30;6.47;;;22.50;99.90;;;;;;5005779;28;20042;-76
2022/07/13 02:19:28;;;;;;;11.05;7.43;;;22.50;99.90;;;;;;5000173;28;20141;-76
2022/07/13 02:21:53;;;;;;;12.27;7.10;;;22.50;99.90;;;;;;5008500;28;20109;-77
2022/07/13 02:24:19;;;;;;;10.32;6.78;;;22.40;99.90;;;;;;5003063;28;20130;-77
2022/07/13 02:26:45;;;;;;;11.98;7.63;;;22.40;99.90;;;;;;5003061;28;20018;-76
2022/07/13 02:29:10;;;;;;;10.98;7.63;;;22.40;99.90;;;;;;5006772;28;20050;-77
2022/07/13 02:31:36;;;;;;;8.63;6.80;;;22.40;99.90;;;;;;4997348;28;20027;-76
2022/07/13 02:34:01;;;;;;;9.65;6.72;;;22.40;99.90;;;;;;5010695;28;20064;-76
2022/07/13 02:36:27;;;;;;;8.60;6.93;;;22.40;99.90;;;;;;5009326;28;20390;-76
2022/07/13 02:38:52;;;;;;;10.90;7.18;;;22.40;99.90;;;;;;4998120;28;20517;-77
2022/07/13 02:41:18;;;;;;;12.70;7.68;;;22.40;99.90;;;;;;4999333;28;20130;-76
2022/07/13 02:43:44;;;;;;;11.00;7.32;;;22.30;99.90;;;;;;5003357;28;20144;-76
2022/07/13 02:46:09;;;;;;;16.77;8.98;;;22.40;99.90;;;;;;5000719;28;20023;-76
2022/07/13 02:48:35;;;;;;;13.75;9.27;;;22.30;99.90;;;;;;5007939;28;20109;-76
2022/07/13 02:51:00;;;;;;;17.35;9.02;;;22.30;99.90;;;;;;4993395;28;20073;-76
2022/07/13 02:53:26;;;;;;;11.80;8.93;;;22.30;99.90;;;;;;5005547;28;20029;-76
2022/07/13 02:55:51;;;;;;;14.63;8.88;;;22.30;99.90;;;;;;5000528;28;20062;-77
2022/07/13 02:58:17;;;;;;;12.75;8.38;;;22.30;99.90;;;;;;4999442;28;20038;-76
2022/07/13 03:00:42;;;;;;;9.85;8.20;;;22.20;99.90;;;;;;4991785;28;20560;-76
2022/07/13 03:03:08;;;;;;;11.35;8.65;;;22.20;99.90;;;;;;5001717;28;20446;-76
2022/07/13 03:05:33;;;;;;;11.75;7.75;;;22.20;99.90;;;;;;5008832;28;20025;-77
2022/07/13 03:07:59;;;;;;;13.27;8.23;;;22.20;99.90;;;;;;5002376;28;20026;-76
2022/07/13 03:10:25;;;;;;;9.88;8.15;;;22.20;99.90;;;;;;5005309;28;20109;-76
2022/07/13 03:12:50;;;;;;;12.95;8.05;;;22.20;99.90;;;;;;4997948;28;20080;-76
2022/07/13 03:15:16;;;;;;;12.20;7.90;;;22.20;99.90;;;;;;5007172;28;20030;-76
2022/07/13 03:17:42;;;;;;;14.48;7.97;;;22.20;99.90;;;;;;4992464;28;20057;-80
2022/07/13 03:20:09;;;;;;;11.23;7.53;;;22.20;99.90;;;;;;4992916;28;20101;-77
2022/07/13 03:22:34;;;;;;;11.23;8.15;;;22.20;99.90;;;;;;5008631;28;20069;-76
2022/07/13 03:25:00;;;;;;;11.07;7.53;;;22.20;99.90;;;;;;4996700;28;20418;-76
2022/07/13 03:27:26;;;;;;;11.48;7.20;;;22.10;99.90;;;;;;5001933;28;20029;-77
2022/07/13 03:29:51;;;;;;;14.27;7.85;;;22.10;99.90;;;;;;5002488;28;20478;-77
2022/07/13 03:32:17;;;;;;;12.55;8.07;;;22.10;99.90;;;;;;5008270;28;20105;-76
2022/07/13 03:34:42;;;;;;;11.75;7.18;;;22.10;99.90;;;;;;5009735;28;20034;-77
2022/07/13 03:37:08;;;;;;;12.15;7.60;;;22.10;99.90;;;;;;5008138;28;20168;-76
2022/07/13 03:39:34;;;;;;;9.32;7.28;;;22.10;99.90;;;;;;5004431;28;20030;-76
2022/07/13 03:42:00;;;;;;;11.20;7.25;;;22.00;99.90;;;;;;4995401;28;20039;-76
2022/07/13 03:44:26;;;;;;;11.30;7.18;;;22.00;99.90;;;;;;5003499;28;20116;-76
2022/07/13 03:46:51;;;;;;;10.45;7.25;;;22.00;99.90;;;;;;5001990;28;20229;-77
2022/07/13 03:49:17;;;;;;;11.15;7.70;;;22.00;99.90;;;;;;4995444;28;20441;-77
2022/07/13 03:51:43;;;;;;;11.98;7.85;;;22.00;99.90;;;;;;5005574;28;20448;-76
2022/07/13 03:54:08;;;;;;;16.65;8.05;;;22.00;99.90;;;;;;5000035;28;20026;-76
2022/07/13 03:56:34;;;;;;;12.00;7.82;;;22.00;99.90;;;;;;4993278;28;20039;-77
2022/07/13 03:59:00;;;;;;;12.80;7.45;;;22.00;99.90;;;;;;4999962;28;20492;-76
2022/07/13 04:01:26;;;;;;;14.18;8.45;;;22.00;99.90;;;;;;5004984;28;20023;-76
2022/07/13 04:03:52;;;;;;;10.90;8.38;;;22.00;99.90;;;;;;5004074;28;20061;-77
2022/07/13 04:06:18;;;;;;;10.50;7.97;;;22.00;99.90;;;;;;4996305;28;20026;-76
2022/07/13 04:08:44;;;;;;;11.02;7.68;;;21.90;99.90;;;;;;5007555;28;20404;-77
2022/07/13 04:11:09;;;;;;;10.02;7.72;;;21.90;99.90;;;;;;5007415;28;20399;-76
2022/07/13 04:13:35;;;;;;;11.20;7.88;;;21.90;99.90;;;;;;4994007;28;20030;-76
2022/07/13 04:16:00;;;;;;;11.55;7.18;;;21.90;99.90;;;;;;5003506;28;20025;-76
2022/07/13 04:18:26;;;;;;;10.50;7.10;;;22.00;99.90;;;;;;5000245;28;20042;-76
2022/07/13 04:20:51;;;;;;;9.82;7.10;;;21.90;99.90;;;;;;5001742;28;20018;-77
2022/07/13 04:23:17;;;;;;;10.70;7.47;;;21.90;99.90;;;;;;5005102;28;20096;-78
2022/07/13 04:25:44;;;;;;;12.25;6.05;;;22.00;99.90;;;;;;5005862;28;20149;-77
2022/07/13 04:28:09;;;;;;;9.52;6.68;;;22.00;99.90;;;;;;5007896;28;20077;-78
2022/07/13 04:30:35;;;;;;;12.80;6.50;;;22.00;99.90;;;;;;5007098;28;20026;-77
2022/07/13 04:33:01;;;;;;;8.40;6.22;;;22.00;99.90;;;;;;5011677;28;20033;-76
2022/07/13 04:35:26;;;;;;;8.88;5.97;;;22.00;99.90;;;;;;5002308;28;20551;-76
2022/07/13 04:37:52;;;;;;;14.30;5.85;;;22.00;99.90;;;;;;5000588;28;20044;-78
2022/07/13 04:40:18;;;;;;;10.88;5.65;;;22.10;99.90;;;;;;5008124;28;20116;-76
2022/07/13 04:42:44;;;;;;;9.05;6.05;;;22.10;99.90;;;;;;5002012;28;20085;-76
2022/07/13 04:45:10;;;;;;;8.65;5.53;;;22.10;99.90;;;;;;5004494;28;20357;-77
2022/07/13 04:47:37;;;;;;;10.40;5.95;;;22.10;99.90;;;;;;5008067;28;20525;-76
2022/07/13 04:50:03;;;;;;;9.70;5.32;;;22.10;99.90;;;;;;5007295;28;20074;-76
2022/07/13 04:52:28;;;;;;;10.90;5.57;;;22.10;99.90;;;;;;4996990;28;20037;-76
2022/07/13 04:54:54;;;;;;;11.15;5.20;;;22.10;99.90;;;;;;4998584;28;20042;-77
2022/07/13 04:57:19;;;;;;;13.90;5.90;;;22.10;99.90;;;;;;4998542;28;20106;-76
2022/07/13 04:59:45;;;;;;;8.25;5.38;;;22.20;99.90;;;;;;5002598;28;20084;-77
2022/07/13 05:02:11;;;;;;;9.38;5.75;;;22.20;99.90;;;;;;4997105;28;20026;-77
2022/07/13 05:04:36;;;;;;;11.38;5.90;;;22.20;99.90;;;;;;5005043;28;20030;-77
2022/07/13 05:07:02;;;;;;;10.13;5.68;;;22.20;99.90;;;;;;4997190;28;20532;-76
2022/07/13 05:09:27;;;;;;;11.68;6.25;;;22.20;99.90;;;;;;5003126;28;20022;-77
2022/07/13 05:11:53;;;;;;;9.57;5.90;;;22.20;99.90;;;;;;5006188;28;20084;-76
2022/07/13 05:14:18;;;;;;;10.82;5.47;;;22.20;99.90;;;;;;4994401;28;20535;-76
2022/07/13 05:16:44;;;;;;;11.23;5.60;;;22.30;99.90;;;;;;4994642;28;20034;-80
2022/07/13 05:19:11;;;;;;;10.63;5.32;;;22.30;99.90;;;;;;4993121;28;20030;-80
2022/07/13 05:21:37;;;;;;;10.07;5.15;;;22.30;99.90;;;;;;4998005;28;20026;-80
2022/07/13 05:24:02;;;;;;;9.55;4.95;;;22.40;99.90;;;;;;4993293;28;20022;-80
2022/07/13 05:26:28;;;;;;;10.23;4.43;;;22.40;99.90;;;;;;4999324;28;20018;-81
2022/07/13 05:28:54;;;;;;;11.00;4.55;;;22.40;99.90;;;;;;5000866;28;20026;-76
2022/07/13 05:31:19;;;;;;;9.10;4.53;;;22.40;99.90;;;;;;5009944;28;20030;-77
2022/07/13 05:33:45;;;;;;;9.18;4.00;;;22.50;99.90;;;;;;5021625;28;20066;-77
2022/07/13 05:36:10;;;;;;;8.95;4.32;;;22.50;99.90;;;;;;5019451;28;20023;-77
2022/07/13 05:38:36;;;;;;;8.68;4.35;;;22.50;99.90;;;;;;5009455;28;20592;-76
2022/07/13 05:41:02;;;;;;;9.32;4.45;;;22.50;99.90;;;;;;5012411;28;20030;-76
2022/07/13 05:43:28;;;;;;;10.18;4.47;;;22.50;99.90;;;;;;5013483;28;20046;-76
2022/07/13 05:45:53;;;;;;;6.63;4.20;;;22.50;99.90;;;;;;5010223;28;20030;-76
2022/07/13 05:48:19;;;;;;;10.60;4.80;;;22.50;99.90;;;;;;5020216;28;20022;-76
2022/07/13 05:50:45;;;;;;;9.50;4.95;;;22.50;99.90;;;;;;5010019;28;20084;-77
2022/07/13 05:53:10;;;;;;;8.65;4.55;;;22.60;99.90;;;;;;5005432;28;20050;-76
2022/07/13 05:55:36;;;;;;;9.30;5.20;;;22.60;99.90;;;;;;5011879;28;20018;-77
2022/07/13 05:58:02;;;;;;;7.63;4.57;;;22.60;99.90;;;;;;5018696;28;20041;-80
2022/07/13 06:00:27;;;;;;;7.45;4.80;;;22.60;99.90;;;;;;5013718;28;20010;-78
2022/07/13 06:02:53;;;;;;;9.30;5.40;;;22.70;99.90;;;;;;5019715;28;20057;-78
2022/07/13 06:05:19;;;;;;;8.35;5.43;;;22.80;99.90;;;;;;5016087;28;20038;-78
2022/07/13 06:07:45;;;;;;;12.70;5.60;;;22.70;99.90;;;;;;5020122;28;20010;-78
2022/07/13 06:10:11;;;;;;;7.80;5.60;;;22.70;99.90;;;;;;5019886;28;20102;-77
2022/07/13 06:12:37;;;;;;;9.18;5.30;;;22.80;99.90;;;;;;5018740;28;20082;-77
2022/07/13 06:15:03;;;;;;;11.57;5.45;;;22.80;99.90;;;;;;5013457;28;20061;-78
2022/07/13 06:17:29;;;;;;;8.70;5.03;;;22.80;99.90;;;;;;5021373;28;20007;-78
2022/07/13 06:19:55;;;;;;;11.05;5.53;;;22.70;99.90;;;;;;5020323;28;20037;-77
2022/07/13 06:22:20;;;;;;;9.00;5.60;;;22.80;99.90;;;;;;5026976;28;20074;-77
2022/07/13 06:24:46;;;;;;;11.32;5.30;;;22.80;99.90;;;;;;5026009;28;20064;-77
2022/07/13 06:27:12;;;;;;;8.68;5.25;;;22.70;99.90;;;;;;5016362;28;20022;-77
2022/07/13 06:29:38;;;;;;;10.18;5.45;;;22.80;99.90;;;;;;5018219;28;20045;-77
2022/07/13 06:32:04;;;;;;;11.43;5.32;;;22.80;99.90;;;;;;5025447;28;20002;-77
2022/07/13 06:34:30;;;;;;;10.35;5.10;;;22.90;99.90;;;;;;5017567;28;20042;-77
2022/07/13 06:36:55;;;;;;;5.93;4.70;;;22.90;99.90;;;;;;5015859;28;20038;-76
2022/07/13 06:39:21;;;;;;;9.25;5.00;;;23.00;99.90;;;;;;5012440;28;20031;-77
2022/07/13 06:41:46;;;;;;;8.95;4.50;;;23.10;99.90;;;;;;5023253;28;20049;-76
2022/07/13 06:44:12;;;;;;;7.28;4.50;;;23.20;99.90;;;;;;5019997;28;20031;-77
2022/07/13 06:46:38;;;;;;;7.57;4.90;;;23.20;99.90;;;;;;5017716;28;20033;-76
2022/07/13 06:49:04;;;;;;;6.25;4.53;;;23.30;99.90;;;;;;5022643;28;20029;-77
2022/07/13 06:51:29;;;;;;;10.27;4.45;;;23.30;99.90;;;;;;5022924;28;20018;-76
2022/07/13 06:53:55;;;;;;;6.65;4.32;;;23.30;99.90;;;;;;5023868;28;20037;-77
2022/07/13 06:56:21;;;;;;;9.65;4.55;;;23.30;99.90;;;;;;5019285;28;20053;-77
2022/07/13 06:58:47;;;;;;;5.88;4.00;;;23.40;99.90;;;;;;5016542;28;20026;-76
2022/07/13 07:01:12;;;;;;;8.52;4.15;;;23.40;99.90;;;;;;5029014;28;20164;-77
2022/07/13 07:03:38;;;;;;;12.60;4.32;;;23.40;99.90;;;;;;5022913;28;20022;-76
2022/07/13 07:06:04;;;;;;;8.20;4.40;;;23.40;99.90;;;;;;5024702;28;20037;-77
2022/07/13 07:08:30;;;;;;;7.82;3.97;;;23.40;99.90;;;;;;5020057;28;20031;-82
2022/07/13 07:10:55;;;;;;;7.97;4.15;;;23.40;99.90;;;;;;5018188;28;20087;-82
2022/07/13 07:13:21;;;;;;;7.97;4.20;;;23.40;99.90;;;;;;5000124;28;20026;-82
2022/07/13 07:15:47;;;;;;;6.82;4.38;;;23.50;99.90;;;;;;5001722;28;20022;-78
2022/07/13 07:18:12;;;;;;;9.35;4.20;;;23.50;99.90;;;;;;4997984;28;20045;-77
2022/07/13 07:20:39;;;;;;;6.38;4.57;;;23.50;99.90;;;;;;4999370;28;20658;-77
2022/07/13 07:23:04;;;;;;;6.28;4.10;;;23.50;99.90;;;;;;5008645;28;20062;-76
2022/07/13 07:25:30;;;;;;;14.50;5.07;;;23.70;99.90;;;;;;5006943;28;20058;-77
2022/07/13 07:27:55;;;;;;;8.68;4.65;;;23.80;99.90;;;;;;5015722;28;20057;-76
2022/07/13 07:30:21;;;;;;;6.90;4.30;;;23.80;99.90;;;;;;5020428;28;20023;-76
2022/07/13 07:32:47;;;;;;;7.10;4.00;;;23.90;99.90;;;;;;5011355;28;20022;-77
2022/07/13 07:35:12;;;;;;;6.80;4.70;;;24.00;99.90;;;;;;5015708;28;20033;-77
2022/07/13 07:37:39;;;;;;;6.68;3.92;;;24.10;99.90;;;;;;5024248;28;20053;-78
2022/07/13 07:40:06;;;;;;;9.27;4.25;;;24.20;99.90;;;;;;5011243;28;20026;-77
2022/07/13 07:42:32;;;;;;;7.45;4.03;;;24.40;99.90;;;;;;5001344;28;20029;-77
2022/07/13 07:44:57;;;;;;;10.13;4.30;;;24.50;99.90;;;;;;5015586;28;20027;-77
2022/07/13 07:47:25;;;;;;;7.38;3.80;;;24.60;99.90;;;;;;5012509;28;20022;-79
2022/07/13 07:49:52;;;;;;;10.73;4.00;;;24.70;99.90;;;;;;5023086;28;20022;-80
2022/07/13 07:52:19;;;;;;;6.22;3.55;;;24.80;99.90;;;;;;5022512;28;20013;-77
2022/07/13 07:54:46;;;;;;;8.85;4.35;;;24.80;99.90;;;;;;4994701;28;20664;-77
2022/07/13 07:57:11;;;;;;;9.45;4.15;;;24.90;99.90;;;;;;4997534;28;20134;-74
2022/07/13 07:59:37;;;;;;;7.05;3.72;;;24.90;99.90;;;;;;4995735;28;20025;-73
2022/07/13 08:02:03;;;;;;;8.80;3.95;;;25.00;99.90;;;;;;4996120;28;20035;-77
2022/07/13 08:04:28;;;;;;;9.02;3.63;;;25.10;99.90;;;;;;4997017;28;20030;-73
2022/07/13 08:06:54;;;;;;;5.88;3.80;;;25.10;99.90;;;;;;5003357;28;20016;-79
2022/07/13 08:09:20;;;;;;;8.38;3.90;;;25.10;99.90;;;;;;4999785;28;20608;-79
2022/07/13 08:11:45;;;;;;;9.15;3.88;;;25.20;99.90;;;;;;5009197;28;20116;-76
2022/07/13 08:14:11;;;;;;;5.20;3.60;;;25.30;99.90;;;;;;5011251;28;20026;-75
2022/07/13 08:16:37;;;;;;;8.52;4.03;;;25.40;99.90;;;;;;5016264;28;20010;-77
2022/07/13 08:19:03;;;;;;;7.97;3.92;;;25.60;99.90;;;;;;5012733;28;20032;-78
2022/07/13 08:21:28;;;;;;;6.38;4.10;;;25.60;99.90;;;;;;5005529;28;20030;-75
2022/07/13 08:23:57;;;;;;;10.13;4.25;;;25.80;99.90;;;;;;5002579;28;20034;-75
2022/07/13 08:26:25;;;;;;;9.75;4.13;;;25.80;99.90;;;;;;5000240;28;20046;-76
2022/07/13 08:28:51;;;;;;;10.15;4.22;;;25.90;99.90;;;;;;4994503;28;20041;-74
2022/07/13 08:31:20;;;;;;;7.18;3.80;;;26.00;99.90;;;;;;5004099;28;20026;-76
2022/07/13 08:39:17;;;;;;;4.97;3.27;;;26.00;99.20;;;;;;5008992;28;20123;-79
2022/07/13 08:41:43;;;;;;;8.00;4.20;;;26.10;98.90;;;;;;4998172;28;20107;-79
2022/07/13 08:44:09;;;;;;;8.07;3.55;;;26.10;98.50;;;;;;5000470;28;20026;-78
2022/07/13 08:46:34;;;;;;;8.73;4.07;;;26.10;98.50;;;;;;5010520;28;20022;-80
2022/07/13 08:49:01;;;;;;;11.98;4.05;;;26.30;98.50;;;;;;5009269;28;20065;-76
2022/07/13 08:51:26;;;;;;;10.75;4.07;;;26.40;98.30;;;;;;5002988;28;20488;-78
2022/07/13 08:53:56;;;;;;;8.00;3.90;;;26.40;97.50;;;;;;5002192;28;20026;-78
2022/07/13 08:56:22;;;;;;;9.40;4.22;;;26.40;97.60;;;;;;5000059;28;20448;-78
2022/07/13 08:58:48;;;;;;;6.45;4.22;;;26.50;97.00;;;;;;5003707;28;20089;-77
2022/07/13 09:01:14;;;;;;;8.07;4.13;;;26.50;96.50;;;;;;5001682;28;20970;-77
2022/07/13 09:03:41;;;;;;;8.57;4.10;;;26.60;96.90;;;;;;5001382;28;20102;-78
2022/07/13 09:06:07;;;;;;;7.53;4.18;;;26.70;96.90;;;;;;5005437;28;20029;-76
2022/07/13 09:08:43;;;;;;;8.65;4.18;;;26.90;96.70;;;;;;5005229;28;20026;-80
2022/07/13 09:11:09;;;;;;;10.75;4.22;;;27.00;95.60;;;;;;5008203;28;20378;-77
2022/07/13 09:13:42;;;;;;;9.07;4.18;;;27.10;95.70;;;;;;5004918;28;20033;-79
2022/07/13 09:16:22;;;;;;;13.25;4.15;;;27.10;95.00;;;;;;5003968;28;20026;-76
2022/07/13 09:18:59;;;;;;;7.97;3.83;;;27.10;94.50;;;;;;5007859;28;20049;-80
2022/07/13 09:21:25;;;;;;;9.48;4.05;;;27.20;94.50;;;;;;5009048;28;20046;-80
2022/07/13 09:23:56;;;;;;;7.97;3.75;;;27.20;94.10;;;;;;5002580;28;20045;-77
2022/07/13 09:26:22;;;;;;;8.65;3.63;;;27.30;94.00;;;;;;5000157;28;20089;-77
2022/07/13 09:28:50;;;;;;;7.80;3.95;;;27.40;93.90;;;;;;5002648;28;20042;-81
2022/07/13 09:31:17;;;;;;;9.70;4.03;;;27.60;93.80;;;;;;5004786;28;20030;-78
2022/07/13 09:33:44;;;;;;;6.82;4.00;;;27.70;93.40;;;;;;4996541;28;20061;-78
2022/07/13 09:36:20;;;;;;;6.38;3.50;;;27.80;92.70;;;;;;5003876;28;20033;-78
2022/07/13 09:38:51;;;;;;;8.30;3.65;;;27.80;91.80;;;;;;4997912;28;20040;-78
2022/07/13 09:41:19;;;;;;;9.70;4.13;;;27.70;92.30;;;;;;4999837;28;20041;-78
2022/07/13 09:47:04;;;;;;;6.35;3.78;;;27.90;92.20;;;;;;4998021;28;20036;-77
2022/07/13 09:49:35;;;;;;;7.45;3.80;;;28.00;91.40;;;;;;5008031;28;20042;-80
2022/07/13 09:52:03;;;;;;;8.30;3.90;;;28.00;91.10;;;;;;5009417;28;20029;-80
2022/07/13 09:54:30;;;;;;;7.85;4.60;;;28.10;90.90;;;;;;4999663;28;20101;-77
2022/07/13 09:57:01;;;;;;;7.93;4.00;;;28.10;90.80;;;;;;5001156;28;20097;-78
2022/07/13 09:59:28;;;;;;;7.43;4.43;;;28.10;90.70;;;;;;5001589;28;20022;-80
2022/07/13 10:01:54;;;;;;;6.15;3.75;;;28.10;90.90;;;;;;5011000;28;20031;-87
2022/07/13 10:04:21;;;;;;;8.82;4.00;;;28.20;90.50;;;;;;5008155;28;20018;-86
2022/07/13 10:06:47;;;;;;;5.05;4.15;;;28.30;90.10;;;;;;5009364;28;20045;-85
2022/07/13 10:09:14;;;;;;;8.80;4.00;;;28.30;89.80;;;;;;5019273;28;20033;-85
2022/07/13 10:11:40;;;;;;;11.15;3.88;;;28.20;89.40;;;;;;5011786;28;20022;-84
2022/07/13 10:14:06;;;;;;;8.43;4.43;;;28.10;89.70;;;;;;5018391;28;20416;-83
2022/07/13 10:16:33;;;;;;;8.65;3.70;;;28.00;88.50;;;;;;5009974;28;20101;-85
2022/07/13 10:19:05;;;;;;;9.50;4.03;;;27.90;87.20;;;;;;5016330;28;20022;-78
2022/07/13 10:21:49;;;;;;;5.97;3.72;;;27.70;87.30;;;;;;5005847;28;20030;-79
2022/07/13 10:24:18;;;;;;;6.22;3.30;;;27.60;87.30;;;;;;5014925;28;20030;-79
2022/07/13 10:26:47;;;;;;;9.45;3.60;;;27.50;88.20;;;;;;5005965;28;20034;-77
2022/07/13 10:29:15;;;;;;;4.82;3.25;;;27.50;88.30;;;;;;5000196;28;20041;-84
2022/07/13 10:31:41;;;;;;;7.15;3.67;;;27.40;88.90;;;;;;5002378;28;20030;-83
2022/07/13 10:34:09;;;;;;;8.57;3.45;;;27.50;89.60;;;;;;5005930;28;20022;-82
2022/07/13 10:36:57;;;;;;;9.40;3.53;;;27.50;88.30;;;;;;5006792;28;20030;-82
2022/07/13 10:39:28;;;;;;;4.60;3.08;;;27.40;87.10;;;;;;5004124;28;20034;-81
2022/07/13 10:42:07;;;;;;;7.80;3.20;;;27.40;87.50;;;;;;5008962;28;20022;-80
2022/07/13 10:44:38;;;;;;;7.10;3.10;;;27.40;86.80;;;;;;5007679;28;20054;-77
2022/07/13 10:47:08;;;;;;;5.97;2.95;;;27.50;85.90;;;;;;5000863;28;20117;-78
2022/07/13 10:49:38;;;;;;;4.63;2.88;;;27.50;85.10;;;;;;5010795;28;20025;-77
2022/07/13 10:52:22;;;;;;;7.72;3.58;;;27.50;85.50;;;;;;5003309;28;20035;-74
2022/07/13 10:55:11;;;;;;;7.22;3.00;;;27.70;85.10;;;;;;5000966;28;20422;-79
2022/07/13 10:57:38;;;;;;;8.48;3.70;;;27.80;85.50;;;;;;4998699;28;20406;-75
2022/07/13 11:00:23;;;;;;;5.05;3.58;;;27.90;84.40;;;;;;4997816;28;20038;-75
2022/07/13 11:02:50;;;;;;;6.95;3.75;;;27.90;84.70;;;;;;5001492;28;20034;-75
2022/07/13 11:05:18;;;;;;;7.72;3.83;;;28.10;84.30;;;;;;5001447;28;20125;-74
2022/07/13 11:07:46;;;;;;;6.20;3.35;;;28.10;84.80;;;;;;5004630;28;20028;-75
2022/07/13 11:10:24;;;;;;;6.05;3.70;;;28.20;83.40;;;;;;5006310;28;20058;-74
2022/07/13 11:13:09;;;;;;;7.32;3.78;;;28.00;82.70;;;;;;5016118;28;20034;-77
2022/07/13 11:15:48;;;;;;;9.45;3.78;;;27.90;84.20;;;;;;5006379;28;20037;-75
2022/07/13 11:18:22;;;;;;;8.32;4.05;;;27.90;84.90;;;;;;5017759;28;20022;-72
2022/07/13 11:20:56;;;;;;;17.05;3.97;;;28.00;85.10;;;;;;5019979;28;20044;-75
2022/07/13 11:26:39;;;;;;;7.75;3.50;;;28.20;84.30;;;;;;5019813;28;20085;-79
2022/07/13 11:29:05;;;;;;;9.88;3.78;;;28.30;83.10;;;;;;5023750;28;20026;-79
2022/07/13 11:31:31;;;;;;;10.40;4.05;;;28.20;83.40;;;;;;5024168;28;20011;-79
2022/07/13 11:33:57;;;;;;;6.63;3.47;;;28.20;83.80;;;;;;5022860;28;20154;-79
2022/07/13 11:36:24;;;;;;;9.55;4.03;;;28.30;84.20;;;;;;5028644;28;20030;-79
2022/07/13 11:38:50;;;;;;;10.15;4.03;;;28.60;83.90;;;;;;5023685;28;20256;-79
2022/07/13 11:41:20;;;;;;;7.25;3.85;;;28.60;81.80;;;;;;5017733;28;20045;-78
2022/07/13 11:43:50;;;;;;;9.45;4.10;;;28.50;81.50;;;;;;5025361;28;20014;-78
2022/07/13 11:46:27;;;;;;;8.45;4.03;;;28.50;81.60;;;;;;5028344;28;20038;-78
2022/07/13 11:49:04;;;;;;;5.18;3.60;;;28.40;81.10;;;;;;5026486;28;20061;-77
2022/07/13 11:51:31;;;;;;;8.68;4.10;;;28.30;80.40;;;;;;5023901;28;20019;-78
2022/07/13 11:54:07;;;;;;;8.02;3.65;;;28.20;80.80;;;;;;5035684;28;20021;-78
2022/07/13 11:56:32;;;;;;;10.40;3.60;;;28.20;82.00;;;;;;5030878;28;20048;-77
2022/07/13 11:58:58;;;;;;;8.45;3.80;;;28.30;82.10;;;;;;5023402;28;20019;-78
2022/07/13 12:01:24;;;;;;;5.85;3.33;;;28.30;80.90;;;;;;5027205;28;20022;-82
2022/07/13 12:03:50;;;;;;;8.68;3.80;;;28.40;80.90;;;;;;5020762;28;20031;-78
2022/07/13 12:06:16;;;;;;;6.50;3.00;;;28.60;80.70;;;;;;5018396;28;20387;-77
2022/07/13 12:08:43;;;;;;;8.23;3.80;;;28.80;79.60;;;;;;5020070;28;20049;-77
2022/07/13 12:11:16;;;;;;;6.43;3.60;;;28.90;77.30;;;;;;5013533;28;20018;-77
2022/07/13 12:13:43;;;;;;;5.68;3.53;;;28.90;76.50;;;;;;5016462;28;20026;-79
2022/07/13 12:16:11;;;;;;;7.32;3.45;;;28.90;76.00;;;;;;5017173;28;20030;-76
2022/07/13 12:19:04;;;;;;;9.27;3.50;;;28.90;75.40;;;;;;5016738;28;20029;-76
2022/07/13 12:21:31;;;;;;;6.50;3.50;;;29.00;74.90;;;;;;5019044;28;20018;-77
2022/07/13 12:23:58;;;;;;;6.70;3.40;;;28.90;75.10;;;;;;5018188;28;20033;-76
2022/07/13 12:26:24;;;;;;;5.07;2.85;;;28.90;74.30;;;;;;5016054;28;20020;-77
2022/07/13 12:28:50;;;;;;;5.90;3.15;;;29.00;73.60;;;;;;5011966;28;20222;-77
2022/07/13 12:31:20;;;;;;;8.15;3.40;;;29.10;72.60;;;;;;5002399;28;20029;-76
2022/07/13 12:33:48;;;;;;;6.35;2.63;;;29.10;72.30;;;;;;5001726;28;20735;-77
2022/07/13 12:36:18;;;;;;;6.82;2.88;;;29.20;71.50;;;;;;4998402;28;20026;-76
2022/07/13 12:39:04;;;;;;;8.20;3.00;;;29.30;70.90;;;;;;5002467;28;20026;-77
2022/07/13 12:41:41;;;;;;;4.82;2.85;;;29.30;70.60;;;;;;5000156;28;20050;-76
2022/07/13 12:44:08;;;;;;;7.80;2.70;;;29.30;70.30;;;;;;5004521;28;20038;-76
2022/07/13 12:46:58;;;;;;;5.07;3.15;;;29.40;70.40;;;;;;4998852;28;20099;-76
2022/07/13 12:49:42;;;;;;;5.72;2.78;;;29.50;67.20;;;;;;4998643;28;20441;-76
2022/07/13 12:52:09;;;;;;;5.05;2.80;;;29.50;67.80;;;;;;5001504;28;20022;-76
2022/07/13 12:54:45;;;;;;;6.07;2.75;;;29.40;67.30;;;;;;5004723;28;20378;-76